createdAt,value
2022-11-29T00:02:00.356Z,21.67
2022-11-29T00:04:30.945Z,17.60
2022-11-29T00:06:59.889Z,18.73
2022-11-29T00:09:28.865Z,17.88
2022-11-29T00:12:16.178Z,16.98
2022-11-29T00:14:45.846Z,21.77
2022-11-29T00:17:19.319Z,21.30
2022-11-29T00:19:49.725Z,18.90
2022-11-29T00:22:18.830Z,21.23
2022-11-29T00:24:47.896Z,20.20
2022-11-29T00:27:16.924Z,19.55
2022-11-29T00:29:46.087Z,21.40
2022-11-29T00:32:16.426Z,19.75
2022-11-29T00:34:45.775Z,19.98
2022-11-29T00:37:16.745Z,21.15
2022-11-29T00:39:46.033Z,18.65
2022-11-29T00:42:15.748Z,22.35
2022-11-29T00:44:45.341Z,20.95
2022-11-29T00:47:14.529Z,21.50
2022-11-29T00:49:43.930Z,20.20
2022-11-29T00:52:13.149Z,18.25
2022-11-29T00:54:43.649Z,20.20
2022-11-29T00:57:13.012Z,19.30
2022-11-29T00:59:42.457Z,22.17
2022-11-29T01:02:12.045Z,18.35
2022-11-29T01:04:41.609Z,18.63
2022-11-29T01:07:11.137Z,20.48
2022-11-29T01:09:40.315Z,22.02
2022-11-29T01:12:11.184Z,19.75
2022-11-29T01:14:41.612Z,19.90
2022-11-29T01:17:11.042Z,21.92
2022-11-29T01:19:40.411Z,21.65
2022-11-29T01:22:09.747Z,21.15
2022-11-29T01:24:39.261Z,19.52
2022-11-29T01:27:10.334Z,21.63
2022-11-29T01:29:40.470Z,20.63
2022-11-29T01:32:09.676Z,24.02
2022-11-29T01:34:41.869Z,19.98
2022-11-29T01:37:13.273Z,18.80
2022-11-29T01:39:43.331Z,20.42
2022-11-29T01:42:15.067Z,23.25
2022-11-29T01:45:15.399Z,18.77
2022-11-29T01:47:48.129Z,21.10
2022-11-29T01:50:18.039Z,18.83
2022-11-29T01:52:49.536Z,19.73
2022-11-29T01:55:19.942Z,18.85
2022-11-29T01:57:51.224Z,20.90
2022-11-29T02:00:21.901Z,20.73
2022-11-29T02:02:58.856Z,20.48
2022-11-29T02:05:29.260Z,21.30
2022-11-29T02:08:01.686Z,19.63
2022-11-29T02:10:49.983Z,20.80
2022-11-29T02:13:35.358Z,24.30
2022-11-29T02:16:17.029Z,18.65
2022-11-29T02:19:01.438Z,21.60
2022-11-29T02:21:44.123Z,20.40
2022-11-29T02:24:57.151Z,21.05
2022-11-29T02:28:17.302Z,24.15
2022-11-29T02:31:32.875Z,22.13
2022-11-29T02:34:37.262Z,18.52
2022-11-29T02:37:33.420Z,18.10
2022-11-29T02:40:42.227Z,20.17
2022-11-29T02:43:41.877Z,22.70
2022-11-29T02:46:38.491Z,19.65
2022-11-29T02:49:23.867Z,19.90
2022-11-29T02:52:02.191Z,22.30
2022-11-29T02:54:47.998Z,19.60
2022-11-29T02:57:33.898Z,22.80
2022-11-29T03:00:08.969Z,18.73
2022-11-29T03:02:49.445Z,23.15
2022-11-29T03:05:32.203Z,22.60
2022-11-29T03:08:13.165Z,21.58
2022-11-29T03:10:57.834Z,21.38
2022-11-29T03:13:56.715Z,20.50
2022-11-29T03:16:42.808Z,22.27
2022-11-29T03:19:37.456Z,21.38
2022-11-29T03:22:16.812Z,20.75
2022-11-29T03:24:59.982Z,22.08
2022-11-29T03:27:42.709Z,24.02
2022-11-29T03:30:18.267Z,18.90
2022-11-29T03:33:00.438Z,18.23
2022-11-29T03:35:38.730Z,23.05
2022-11-29T03:38:22.273Z,20.15
2022-11-29T03:41:02.389Z,20.73
2022-11-29T03:43:44.451Z,18.98
2022-11-29T03:46:22.417Z,21.42
2022-11-29T03:49:00.738Z,23.65
2022-11-29T03:51:48.071Z,23.70
2022-11-29T03:54:26.599Z,20.25
2022-11-29T03:56:56.304Z,21.08
2022-11-29T03:59:53.047Z,20.70
2022-11-29T04:03:23.240Z,22.90
2022-11-29T04:06:36.346Z,19.55
2022-11-29T04:09:42.196Z,20.83
2022-11-29T04:13:03.973Z,23.10
2022-11-29T04:16:20.296Z,19.75
2022-11-29T04:19:35.302Z,22.80
2022-11-29T04:22:41.735Z,21.38
2022-11-29T04:25:56.617Z,20.20
2022-11-29T04:29:07.953Z,20.45
2022-11-29T04:32:01.402Z,26.92
2022-11-29T04:35:13.499Z,22.73
2022-11-29T04:38:47.231Z,20.42
2022-11-29T04:41:37.809Z,20.48
2022-11-29T04:44:31.940Z,21.88
2022-11-29T04:47:35.602Z,24.60
2022-11-29T04:50:57.397Z,22.90
2022-11-29T04:53:51.930Z,23.17
2022-11-29T04:56:36.197Z,21.20
2022-11-29T04:59:17.028Z,21.75
2022-11-29T05:02:06.572Z,21.15
2022-11-29T05:05:30.605Z,20.42
2022-11-29T05:08:20.839Z,24.65
2022-11-29T05:11:06.793Z,24.92
2022-11-29T05:13:52.445Z,21.63
2022-11-29T05:16:49.268Z,21.13
2022-11-29T05:19:57.463Z,21.95
2022-11-29T05:22:40.377Z,23.27
2022-11-29T05:25:41.326Z,22.55
2022-11-29T05:28:21.336Z,21.33
2022-11-29T05:31:15.563Z,20.20
2022-11-29T05:34:38.860Z,20.20
2022-11-29T05:37:28.199Z,20.33
2022-11-29T05:40:37.465Z,21.70
2022-11-29T05:43:25.088Z,18.33
2022-11-29T05:46:10.110Z,21.40
2022-11-29T05:48:52.241Z,18.55
2022-11-29T05:51:28.663Z,21.85
2022-11-29T05:54:14.701Z,19.92
2022-11-29T05:57:00.102Z,22.20
2022-11-29T05:59:31.430Z,21.25
2022-11-29T06:02:17.508Z,20.77
2022-11-29T06:05:11.579Z,20.70
2022-11-29T06:07:49.419Z,21.75
2022-11-29T06:10:20.748Z,22.58
2022-11-29T06:13:11.225Z,22.70
2022-11-29T06:16:24.562Z,21.92
2022-11-29T06:20:04.590Z,23.63
2022-11-29T06:23:09.145Z,20.02
2022-11-29T06:26:03.625Z,20.95
2022-11-29T06:28:51.191Z,19.23
2022-11-29T06:31:28.678Z,20.30
2022-11-29T06:34:07.470Z,20.13
2022-11-29T06:36:45.045Z,22.27
2022-11-29T06:39:16.145Z,19.80
2022-11-29T06:41:45.034Z,24.65
2022-11-29T06:44:14.536Z,21.17
2022-11-29T06:46:50.423Z,20.83
2022-11-29T06:49:28.607Z,22.27
2022-11-29T06:52:15.705Z,22.23
2022-11-29T06:55:04.419Z,20.88
2022-11-29T06:57:50.098Z,22.15
2022-11-29T07:00:25.716Z,20.98
2022-11-29T07:03:26.959Z,22.40
2022-11-29T07:05:56.255Z,21.33
2022-11-29T07:08:26.353Z,22.80
2022-11-29T07:10:57.465Z,20.65
2022-11-29T07:13:26.822Z,22.17
2022-11-29T07:16:12.918Z,21.65
2022-11-29T07:18:52.746Z,23.95
2022-11-29T07:21:41.066Z,25.52
2022-11-29T07:24:33.443Z,21.15
2022-11-29T07:27:19.897Z,23.30
2022-11-29T07:30:05.597Z,22.50
2022-11-29T07:33:00.335Z,22.50
2022-11-29T07:35:42.967Z,21.55
2022-11-29T07:38:26.248Z,24.17
2022-11-29T07:41:05.466Z,22.92
2022-11-29T07:43:49.135Z,22.83
2022-11-29T07:46:17.728Z,23.52
2022-11-29T07:48:47.007Z,23.77
2022-11-29T07:51:16.576Z,22.45
2022-11-29T07:53:46.603Z,24.27
2022-11-29T07:56:16.376Z,20.77
2022-11-29T07:58:46.815Z,22.35
2022-11-29T08:01:15.451Z,22.25
2022-11-29T08:03:44.090Z,21.00
2022-11-29T08:06:12.644Z,22.17
2022-11-29T08:08:44.161Z,19.25
2022-11-29T08:11:14.146Z,23.08
2022-11-29T08:13:42.710Z,18.23
2022-11-29T08:16:18.658Z,18.75
2022-11-29T08:18:47.268Z,22.10
2022-11-29T08:21:18.318Z,22.35
2022-11-29T08:24:14.235Z,22.10
2022-11-29T08:26:42.798Z,21.63
2022-11-29T08:29:11.325Z,20.52
2022-11-29T08:31:41.452Z,21.15
2022-11-29T08:34:11.697Z,20.40
2022-11-29T08:36:40.267Z,20.42
2022-11-29T08:39:09.687Z,19.48
2022-11-29T08:41:38.598Z,21.33
2022-11-29T08:44:07.565Z,21.30
2022-11-29T08:46:54.162Z,22.85
2022-11-29T08:49:24.071Z,23.70
2022-11-29T08:52:13.627Z,20.10
2022-11-29T08:54:41.197Z,21.02
2022-11-29T08:57:38.402Z,19.27
2022-11-29T08:59:59.532Z,22.20
2022-11-29T09:02:28.124Z,20.50
2022-11-29T09:04:58.463Z,22.17
2022-11-29T09:11:08.938Z,19.25
2022-11-29T09:13:37.540Z,22.02
2022-11-29T09:16:11.109Z,21.15
2022-11-29T09:18:41.548Z,22.35
2022-11-29T09:21:14.006Z,21.52
2022-11-29T09:24:11.941Z,22.80
2022-11-29T09:26:42.192Z,20.02
2022-11-29T09:29:12.399Z,16.77
2022-11-29T09:31:40.938Z,20.20
2022-11-29T09:34:09.602Z,23.05
2022-11-29T09:36:39.519Z,18.95
2022-11-29T09:39:09.932Z,21.15
2022-11-29T09:42:22.596Z,19.10
2022-11-29T09:45:06.190Z,19.85
2022-11-29T09:48:06.274Z,23.25
2022-11-29T09:50:40.483Z,21.35
2022-11-29T09:53:38.005Z,19.85
2022-11-29T09:56:19.657Z,21.08
2022-11-29T09:58:58.492Z,20.70
2022-11-29T10:01:31.496Z,21.95
2022-11-29T10:04:05.293Z,19.15
2022-11-29T10:06:41.996Z,20.77
2022-11-29T10:09:22.534Z,21.15
2022-11-29T10:12:04.572Z,21.35
2022-11-29T10:14:43.959Z,21.25
2022-11-29T10:17:29.559Z,21.00
2022-11-29T10:20:07.430Z,21.80
2022-11-29T10:22:49.498Z,18.42
2022-11-29T10:25:26.720Z,19.80
2022-11-29T10:27:55.646Z,21.17
2022-11-29T10:30:24.486Z,19.63
2022-11-29T10:33:00.678Z,21.40
2022-11-29T10:35:29.750Z,21.02
2022-11-29T10:41:00.090Z,22.33
2022-11-29T10:43:28.777Z,20.95
2022-11-29T10:45:58.794Z,20.85
2022-11-29T10:48:32.530Z,22.13
2022-11-29T10:51:55.241Z,21.30
2022-11-29T10:54:39.896Z,19.50
2022-11-29T10:57:17.532Z,19.83
2022-11-29T11:00:01.951Z,24.20
2022-11-29T11:02:55.664Z,19.70
2022-11-29T11:05:28.135Z,21.33
2022-11-29T11:08:00.042Z,23.52
2022-11-29T11:10:31.219Z,21.40
2022-11-29T11:13:25.108Z,21.00
2022-11-29T11:16:00.025Z,22.13
2022-11-29T11:18:30.978Z,22.20
2022-11-29T11:21:02.653Z,21.08
2022-11-29T11:23:39.927Z,22.58
2022-11-29T11:26:16.695Z,20.65
2022-11-29T11:28:55.424Z,22.85
2022-11-29T11:31:34.316Z,23.02
2022-11-29T11:34:28.059Z,22.15
2022-11-29T11:37:21.473Z,21.60
2022-11-29T11:39:52.833Z,21.30
2022-11-29T11:42:38.511Z,23.63
2022-11-29T11:45:35.400Z,22.83
2022-11-29T11:48:14.502Z,21.98
2022-11-29T11:50:50.787Z,25.38
2022-11-29T11:53:27.864Z,21.27
2022-11-29T11:56:01.897Z,22.95
2022-11-29T11:58:33.654Z,20.38
2022-11-29T12:01:17.953Z,25.33
2022-11-29T12:03:58.247Z,24.27
2022-11-29T12:06:37.592Z,21.33
2022-11-29T12:09:18.648Z,24.50
2022-11-29T12:12:00.281Z,23.85
2022-11-29T12:14:43.872Z,21.52
2022-11-29T12:17:27.948Z,22.05
2022-11-29T12:20:23.585Z,22.63
2022-11-29T12:23:28.335Z,21.92
2022-11-29T12:26:05.269Z,20.88
2022-11-29T12:28:42.148Z,21.55
2022-11-29T12:31:41.179Z,23.02
2022-11-29T12:34:35.551Z,26.42
2022-11-29T12:37:16.517Z,22.88
2022-11-29T12:40:05.385Z,25.30
2022-11-29T12:42:52.039Z,23.88
2022-11-29T12:45:41.869Z,26.98
2022-11-29T12:48:30.832Z,24.00
2022-11-29T12:51:14.272Z,23.98
2022-11-29T12:54:05.972Z,26.10
2022-11-29T12:56:44.144Z,25.45
2022-11-29T12:59:31.627Z,24.73
2022-11-29T13:02:25.159Z,24.83
2022-11-29T13:05:04.459Z,25.90
2022-11-29T13:08:00.850Z,25.98
2022-11-29T13:10:51.107Z,26.23
2022-11-29T13:13:36.783Z,25.25
2022-11-29T13:16:27.671Z,25.27
2022-11-29T13:19:09.250Z,25.33
2022-11-29T13:21:47.908Z,26.83
2022-11-29T13:24:27.389Z,28.10
2022-11-29T13:26:57.659Z,27.17
2022-11-29T13:29:27.831Z,25.45
2022-11-29T13:31:56.833Z,23.02
2022-11-29T13:34:34.339Z,25.25
2022-11-29T13:37:19.762Z,26.42
2022-11-29T13:40:02.576Z,25.50
2022-11-29T13:42:41.825Z,25.35
2022-11-29T13:45:22.698Z,23.50
2022-11-29T13:47:53.054Z,25.95
2022-11-29T13:50:41.159Z,26.23
2022-11-29T13:53:17.840Z,26.40
2022-11-29T13:56:00.449Z,27.55
2022-11-29T13:58:40.132Z,27.25
2022-11-29T14:01:11.783Z,26.27
2022-11-29T14:03:42.857Z,28.65
2022-11-29T14:06:16.055Z,27.15
2022-11-29T14:09:35.159Z,26.58
2022-11-29T14:12:23.429Z,25.27
2022-11-29T14:14:56.594Z,23.77
2022-11-29T14:17:52.228Z,24.13
2022-11-29T14:20:58.798Z,22.48
2022-11-29T14:23:40.567Z,24.98
2022-11-29T14:26:33.495Z,24.80
2022-11-29T14:29:42.086Z,23.60
2022-11-29T14:32:24.643Z,27.55
2022-11-29T14:35:03.059Z,21.08
2022-11-29T14:37:56.048Z,24.65
2022-11-29T14:40:37.343Z,23.67
2022-11-29T14:43:23.147Z,24.50
2022-11-29T14:46:29.258Z,25.25
2022-11-29T14:49:05.716Z,27.65
2022-11-29T14:51:36.144Z,24.23
2022-11-29T14:54:16.122Z,24.63
2022-11-29T14:56:46.292Z,24.05
2022-11-29T14:59:46.636Z,23.90
2022-11-29T15:02:34.096Z,22.55
2022-11-29T15:05:34.219Z,22.95
2022-11-29T15:08:15.605Z,24.50
2022-11-29T15:10:51.705Z,22.08
2022-11-29T15:13:33.086Z,23.75
2022-11-29T15:16:32.695Z,32.88
2022-11-29T15:19:52.525Z,26.27
2022-11-29T15:22:31.098Z,24.85
2022-11-29T15:25:13.263Z,24.75
2022-11-29T15:27:54.025Z,23.90
2022-11-29T15:30:33.047Z,21.88
2022-11-29T15:33:07.133Z,25.08
2022-11-29T15:35:38.758Z,23.08
2022-11-29T15:38:08.802Z,23.23
2022-11-29T15:40:41.026Z,22.33
2022-11-29T15:43:23.942Z,26.35
2022-11-29T15:45:55.739Z,22.63
2022-11-29T15:48:27.646Z,25.33
2022-11-29T15:51:16.995Z,21.23
2022-11-29T15:54:00.460Z,27.77
2022-11-29T15:56:49.166Z,23.42
2022-11-29T15:59:34.245Z,25.85
2022-11-29T16:02:10.082Z,23.58
2022-11-29T16:04:47.115Z,23.50
2022-11-29T16:07:22.299Z,23.42
2022-11-29T16:09:58.230Z,23.55
2022-11-29T16:12:28.179Z,26.58
2022-11-29T16:15:00.024Z,26.23
2022-11-29T16:17:32.520Z,27.15
2022-11-29T16:20:25.451Z,25.40
2022-11-29T16:23:13.210Z,28.75
2022-11-29T16:26:00.201Z,25.60
2022-11-29T16:28:37.830Z,29.27
2022-11-29T16:31:07.130Z,26.55
2022-11-29T16:33:39.555Z,27.73
2022-11-29T16:36:19.109Z,29.77
2022-11-29T16:38:55.196Z,26.52
2022-11-29T16:41:33.160Z,26.33
2022-11-29T16:44:04.871Z,29.25
2022-11-29T16:46:40.597Z,26.50
2022-11-29T16:49:34.877Z,25.90
2022-11-29T16:52:23.654Z,29.23
2022-11-29T16:54:54.289Z,26.10
2022-11-29T16:57:26.590Z,28.05
2022-11-29T16:59:57.838Z,25.83
2022-11-29T17:02:43.564Z,25.23
2022-11-29T17:05:20.917Z,25.88
2022-11-29T17:07:59.485Z,26.98
2022-11-29T17:10:35.998Z,27.92
2022-11-29T17:13:05.037Z,29.63
2022-11-29T17:15:33.949Z,29.85
2022-11-29T17:18:04.858Z,28.80
2022-11-29T17:20:45.014Z,25.63
2022-11-29T17:23:17.236Z,29.08
2022-11-29T17:26:08.024Z,25.45
2022-11-29T17:28:43.375Z,28.25
2022-11-29T17:31:21.564Z,25.90
2022-11-29T17:33:59.193Z,26.77
2022-11-29T17:36:33.346Z,28.10
2022-11-29T17:39:12.130Z,28.70
2022-11-29T17:41:47.336Z,26.45
2022-11-29T17:44:19.030Z,27.83
2022-11-29T17:46:50.348Z,25.70
2022-11-29T17:49:24.984Z,27.40
2022-11-29T17:52:04.895Z,29.15
2022-11-29T17:54:39.384Z,26.60
2022-11-29T17:57:16.000Z,27.23
2022-11-29T17:59:48.586Z,26.65
2022-11-29T18:02:21.704Z,29.20
2022-11-29T18:04:56.703Z,28.92
2022-11-29T18:07:38.505Z,28.75
2022-11-29T18:10:16.793Z,27.48
2022-11-29T18:12:49.943Z,25.65
2022-11-29T18:15:24.127Z,26.85
2022-11-29T18:17:57.359Z,28.17
2022-11-29T18:20:38.900Z,25.33
2022-11-29T18:23:15.552Z,28.48
2022-11-29T18:25:48.645Z,26.23
2022-11-29T18:28:19.278Z,27.70
2022-11-29T18:30:50.567Z,27.13
2022-11-29T18:33:20.294Z,27.85
2022-11-29T18:35:52.221Z,25.88
2022-11-29T18:44:07.901Z,24.60
2022-11-29T18:50:14.594Z,26.35
2022-11-29T18:53:03.715Z,27.88
2022-11-29T18:55:45.053Z,26.38
2022-11-29T18:58:46.518Z,27.88
2022-11-29T19:01:43.542Z,26.35
2022-11-29T19:04:48.101Z,28.20
2022-11-29T19:07:24.186Z,28.30
2022-11-29T19:10:00.149Z,25.35
2022-11-29T19:12:32.829Z,26.45
2022-11-29T19:15:02.715Z,27.38
2022-11-29T19:17:32.722Z,30.25
2022-11-29T19:20:04.239Z,31.48
2022-11-29T19:22:33.501Z,28.77
2022-11-29T19:25:10.823Z,27.23
2022-11-29T19:27:40.888Z,26.48
2022-11-29T19:30:15.777Z,29.23
2022-11-29T19:32:54.961Z,27.00
2022-11-29T19:35:36.804Z,29.50
2022-11-29T19:38:06.916Z,28.38
2022-11-29T19:40:36.975Z,27.17
2022-11-29T19:43:06.513Z,29.65
2022-11-29T19:45:40.022Z,31.13
2022-11-29T19:48:10.318Z,28.10
2022-11-29T19:50:54.793Z,26.90
2022-11-29T19:53:24.313Z,25.00
2022-11-29T19:55:53.845Z,28.25
2022-11-29T19:59:04.802Z,25.35
2022-11-29T20:08:30.417Z,25.45
2022-11-29T20:19:39.796Z,23.40
2022-11-29T20:22:52.877Z,25.40
2022-11-29T20:26:03.899Z,28.48
2022-11-29T20:30:00.729Z,31.55
2022-11-29T20:32:56.642Z,26.02
2022-11-29T20:35:33.154Z,28.70
2022-11-29T20:38:25.850Z,25.70
2022-11-29T20:41:05.797Z,28.40
2022-11-29T20:43:47.580Z,29.17
2022-11-29T20:46:21.462Z,28.17
2022-11-29T20:48:53.024Z,27.58
2022-11-29T20:51:34.706Z,28.85
2022-11-29T20:54:05.833Z,27.42
2022-11-29T20:56:52.851Z,28.52
2022-11-29T20:59:26.013Z,31.38
2022-11-29T21:01:57.194Z,28.88
2022-11-29T21:04:28.108Z,30.63
2022-11-29T21:06:57.762Z,28.48
2022-11-29T21:09:28.622Z,28.73
2022-11-29T21:12:01.841Z,28.15
2022-11-29T21:14:32.080Z,30.30
2022-11-29T21:17:02.781Z,29.33
2022-11-29T21:19:33.771Z,29.50
2022-11-29T21:22:15.346Z,28.95
2022-11-29T21:24:58.607Z,29.77
2022-11-29T21:27:35.103Z,29.40
2022-11-29T21:30:07.843Z,30.65
2022-11-29T21:32:38.570Z,28.85
2022-11-29T21:35:09.992Z,30.60
2022-11-29T21:37:39.581Z,29.77
2022-11-29T21:40:11.259Z,30.40
2022-11-29T21:42:42.558Z,28.25
2022-11-29T21:45:15.857Z,31.35
2022-11-29T21:47:47.080Z,29.80
2022-11-29T21:50:18.306Z,30.80
2022-11-29T21:52:47.796Z,29.65
2022-11-29T21:55:17.360Z,28.48
2022-11-29T21:57:48.373Z,31.25
2022-11-29T22:00:19.616Z,29.58
2022-11-29T22:02:49.499Z,30.33
2022-11-29T22:05:20.679Z,29.35
2022-11-29T22:07:51.702Z,30.58
2022-11-29T22:10:22.387Z,28.10
2022-11-29T22:12:54.966Z,32.15
2022-11-29T22:15:25.196Z,29.40
2022-11-29T22:17:56.516Z,30.08
2022-11-29T22:20:27.378Z,32.15
2022-11-29T22:22:58.858Z,31.75
2022-11-29T22:25:30.341Z,29.65
2022-11-29T22:28:02.221Z,28.60
2022-11-29T22:30:33.112Z,31.15
2022-11-29T22:33:02.969Z,31.85
2022-11-29T22:35:32.571Z,29.55
2022-11-29T22:38:02.160Z,30.60
2022-11-29T22:40:33.718Z,31.05
2022-11-29T22:43:04.994Z,31.48
2022-11-29T22:45:35.590Z,29.58
2022-11-29T22:48:05.133Z,29.40
2022-11-29T22:51:06.986Z,31.08
2022-11-29T22:53:37.428Z,31.35
2022-11-29T22:56:09.980Z,28.88
2022-11-29T22:58:42.100Z,31.50
2022-11-29T23:01:17.150Z,27.90
2022-11-29T23:03:52.227Z,30.75
2022-11-29T23:06:27.167Z,32.35
2022-11-29T23:09:00.418Z,29.42
2022-11-29T23:11:32.342Z,30.48
2022-11-29T23:14:04.352Z,28.40
2022-11-29T23:16:34.647Z,33.78
2022-11-29T23:19:11.980Z,28.73
2022-11-29T23:21:45.939Z,32.75
2022-11-29T23:24:16.617Z,30.27
2022-11-29T23:26:48.984Z,28.73
2022-11-29T23:29:25.443Z,29.42
2022-11-29T23:31:55.651Z,31.70
2022-11-29T23:34:32.529Z,32.13
2022-11-29T23:37:03.784Z,34.40
2022-11-29T23:39:34.946Z,30.90
2022-11-29T23:42:05.062Z,31.17
2022-11-29T23:44:42.567Z,27.15
2022-11-29T23:47:12.286Z,31.42
2022-11-29T23:49:41.944Z,30.02
2022-11-29T23:52:11.776Z,32.03
2022-11-29T23:54:42.988Z,29.85
2022-11-29T23:57:12.385Z,31.08
2022-11-29T23:59:46.129Z,36.80
